Rechercher aéroport 
image banner adimage banner adimage banner ad
image banner ad

CL60 - Memorial Hospital

Situé à Bakersfield, United States

ICAO - CL60, IATA -

Données fournies par Airmate  

Information générale

Coordonnées: N35°23'29" W119°0'23"
Élévation : 500 feet MSL.
Variation magnétique : 14° East
Voir autres Aéroports à California

Données opérationnelles

Special qualification required
Heure actuelle UTC:
Heure actuelle locale:
Météo à : KBFL - Meadows Field ( 7 km )
METAR: KBFL 020454Z 01012KT 10SM CLR 31/02 A2998 RMK AO2 SLP143 T03060022
TAF: KBFL 012327Z 0200/0224 32012KT P6SM SKC FM020600 36005KT P6SM SKC FM021900 31013KT P6SM SKC
Voir NOTAMs / SUP AIP / TFR affectant cet aéroport [VIEW]
Fréquences de communication: [VIEW]

Pistes:

Coordonnées de l'aéroport

Adresse: Bakersfield United States

Vue satellite de CL60